AirNav   Everest Fuels
 
 892 users online  

CN12 Williams Gliderport
Williams, California, USA

GOING TO WILLIAMS?


FAA INFORMATION EFFECTIVE 21 MAY 2020

Location

FAA Identifier: CN12
Lat/Long: 39-09-48.6080N 122-07-53.9080W
39-09.810133N 122-07.898467W
39.1635022,-122.1316411
(estimated)
Elevation: 68 ft. / 21 m (estimated)
Variation: 16E (1985)
From city: 1 mile NE of WILLIAMS, CA
Time zone: UTC -7 (UTC -8 during Standard Time)
Zip code: 95987

Gliderport Operations

Gliderport use: Private use. Permission required prior to landing
Control tower: no
ARTCC: OAKLAND CENTER
FSS: RANCHO MURIETA FLIGHT SERVICE STATION
Attendance: UNATNDD
Wind indicator: yes
Segmented circle: no
Landing fee: yes

Nearby radio navigation aids

VOR radial/distance  VOR name  Freq  Var
ILAr301/7.4WILLIAMS VORTAC114.4018E
MYVr263/26.3MARYSVILLE VOR/DME110.8016E
CICr183/39.8CHICO VOR/DME109.8016E

Gliderport Services

Airframe service: NONE
Powerplant service: NONE

Runway Information

Runway 16/34

Dimensions: 2500 x 40 ft. / 762 x 12 m
Surface: asphalt
RUNWAY 16  RUNWAY 34
Traffic pattern: rightright

Gliderport Ownership and Management from official FAA records

Ownership: Privately-owned
Owner: VACAVILLE AERO SVCS INC
2668 HUSTED ROAD
WILLIAMS, CA 95987-5105
Phone 530-473-5600
Manager: BRETT R. MAYES
2668 HUSTED ROAD
WILLIAMS, CA 95987-5105
Phone 530-473-5600
ADD'L CONTACT NOELLE MAYES, 530-330-4354, NOELLE@WILLIAMSSOARING.COM

Gliderport Operational Statistics

Aircraft based on the field: 59
Single engine airplanes: 7
Multi engine airplanes: 2
Gliders airplanes: 50
    

Additional Remarks

RWY/APRON - POOR; UNPAVED PORTION - POOR/SOFT WHEN WET.
FOR CD CTC OAKLAND ARTCC AT 510-745-3380.

Instrument Procedures

There are no published instrument procedures at CN12.

Some nearby airports with instrument procedures:

O08 - Colusa County Airport (6 nm E)
KWLW - Willows-Glenn County Airport (22 nm N)
KMYV - Yuba County Airport (26 nm E)
KOVE - Oroville Municipal Airport (31 nm NE)
O41 - Watts-Woodland Airport (32 nm S)
 
Loc | Ops | Rwys | IFR | FBO | Links
Com | Nav | Svcs | Stats | Notes

Sonoma Jet Center
 
Area around CN12 (Williams Gliderport)
 
Road maps at: MapQuest Bing Google
 
Aerial photo
WARNING: Photo may not be current or correct
Aerial photo of CN12 (Williams Gliderport)
Photo by Kempton Izuno

Do you have a better or more recent aerial photo of Williams Gliderport that you would like to share? If so, please send us your photo.

 
Sectional chart

 
Airport distance calculator
Flying to Williams Gliderport? Find the distance to fly.

From to CN12

Sunrise and sunset
Times for 03-Jun-2020
 Local
(UTC-7)
 Zulu
(UTC)
Morning civil twilight05:1212:12
Sunrise05:4412:44
Sunset20:3003:30
Evening civil twilight21:0104:01

Current date and time
Zulu (UTC)  04-Jun-2020 02:07:41
Local (UTC-7)  03-Jun-2020 19:07:41
 
METAR
KMYV 
27nm E 
040153Z AUTO 18008KT 10SM CLR 37/09 A2980 RMK AO2 SLP096 T03670094
KOVE 
31nm NE 
040153Z AUTO 18007KT 10SM CLR 36/09 A2982 RMK AO2 SLP098 T03610094
KBAB 
32nm E 
040158Z AUTO 20006KT 10SM CLR 37/11 A2980 RMK AO2 SLP093 T03650106 $
KSMF 
37nm SE 
040153Z 18007KT 10SM FEW250 37/10 A2980 RMK AO2 SLP091 T03720100
KLHM 
39nm SE 
040155Z AUTO 00000KT 10SM CLR 36/08 A2981 RMK AO1
KCIC 
40nm N 
040142Z 16008KT 40SM SCT200 36/08 A2982
KEDU 
41nm SE 
040155Z AUTO 21006KT 10SM CLR 35/14 A2981 RMK AO1
KMCC 
45nm SE 
040155Z AUTO 29003KT 10SM CLR 37/06 A2981 RMK AO2
KVCB 
48nm S 
040153Z AUTO 24007KT 10SM CLR 36/08 A2983 RMK AO2 SLP099 T03610078
KSAC 
50nm SE 
040153Z 22005KT 10SM CLR 37/04 A2981 RMK AO2 SLP095 T03720044
TAF
KBAB 
32nm E 
031900Z 0319/0501 22009KT 9999 SKC QNH2977INS BECMG 0403/0404 11006KT 9999 SKC QNH2977INS BECMG 0418/0419 19009KT 9999 SKC QNH2962INS TX39/0323Z TN18/0413Z
KSMF 
37nm SE 
031720Z 0318/0418 36007KT P6SM FEW250 FM032100 26005KT P6SM SKC FM040000 20005KT P6SM SKC
NOTAMs
Click for the latest NOTAMs
NOTAMs are issued by the DoD/FAA and will open in a separate window not controlled by AirNav.

 

 
 

Would you like to see your business listed on this page?

 If your business provides an interesting product or service to pilots, flight crews, aircraft, or users of the Williams Gliderport, you should consider listing it here.  To start the listing process, click on the button below
 
Add a business
 

Other Pages about Williams Gliderport

Update a link
 
Copyright © AirNav, LLC. All rights reserved. Privacy Policy  Contact